createdAt,value
2019-05-25T00:01:19.784Z,14.90
2019-05-25T00:05:28.409Z,14.80
2019-05-25T00:09:36.984Z,14.70
2019-05-25T00:13:45.608Z,14.60
2019-05-25T00:17:54.232Z,14.60
2019-05-25T00:22:02.803Z,14.60
2019-05-25T00:26:11.408Z,14.50
2019-05-25T00:30:20.175Z,14.40
2019-05-25T00:34:28.753Z,14.30
2019-05-25T00:38:37.361Z,14.20
2019-05-25T00:42:46.283Z,14.00
2019-05-25T00:46:54.876Z,14.10
2019-05-25T00:51:03.491Z,13.90
2019-05-25T00:55:12.371Z,13.90
2019-05-25T00:59:20.960Z,13.90
2019-05-25T01:03:29.959Z,13.80
2019-05-25T01:07:38.567Z,13.70
2019-05-25T01:11:47.194Z,13.70
2019-05-25T01:15:56.142Z,13.70
2019-05-25T01:20:07.700Z,13.60
2019-05-25T01:24:16.318Z,13.60
2019-05-25T01:28:24.948Z,13.60
2019-05-25T01:32:33.656Z,13.50
2019-05-25T01:36:42.258Z,13.50
2019-05-25T01:40:50.903Z,13.40
2019-05-25T01:44:59.585Z,13.30
2019-05-25T01:49:08.231Z,13.10
2019-05-25T01:53:16.848Z,13.00
2019-05-25T01:57:25.785Z,12.80
2019-05-25T02:01:34.761Z,12.70
2019-05-25T02:05:43.353Z,12.70
2019-05-25T02:09:51.968Z,12.90
2019-05-25T02:14:00.871Z,12.80
2019-05-25T02:18:09.468Z,12.90
2019-05-25T02:22:18.077Z,13.00
2019-05-25T02:26:46.050Z,13.00
2019-05-25T02:30:54.696Z,13.00
2019-05-25T02:35:03.801Z,13.10
2019-05-25T02:39:12.679Z,13.10
2019-05-25T02:43:21.284Z,13.10
2019-05-25T02:47:29.911Z,13.10
2019-05-25T02:51:38.505Z,13.10
2019-05-25T02:55:47.178Z,13.00
2019-05-25T02:59:55.785Z,12.90
2019-05-25T03:04:04.543Z,12.80
2019-05-25T03:08:13.137Z,12.70
2019-05-25T03:12:22.187Z,12.80
2019-05-25T03:16:31.170Z,12.70
2019-05-25T03:20:40.161Z,12.60
2019-05-25T03:24:48.775Z,12.60
2019-05-25T03:28:57.395Z,12.70
2019-05-25T03:33:06.513Z,12.60
2019-05-25T03:37:15.091Z,12.50
2019-05-25T03:41:24.077Z,12.50
2019-05-25T03:45:33.873Z,12.50
2019-05-25T03:49:42.468Z,12.50
2019-05-25T03:53:51.088Z,12.50
2019-05-25T03:57:59.870Z,12.50
2019-05-25T04:02:08.679Z,12.60
2019-05-25T04:06:17.305Z,12.50
2019-05-25T04:10:25.922Z,12.50
2019-05-25T04:14:34.548Z,12.50
2019-05-25T04:18:43.137Z,12.50
2019-05-25T04:22:51.751Z,12.70
2019-05-25T04:27:00.758Z,12.80
2019-05-25T04:31:09.435Z,12.80
2019-05-25T04:35:18.038Z,12.80
2019-05-25T04:39:26.668Z,12.90
2019-05-25T04:43:35.314Z,12.80
2019-05-25T04:47:43.902Z,12.90
2019-05-25T04:51:52.508Z,13.00
2019-05-25T04:56:01.564Z,13.10
2019-05-25T05:00:11.792Z,13.10
2019-05-25T05:04:20.422Z,13.30
2019-05-25T05:08:29.097Z,13.40
2019-05-25T05:12:37.678Z,13.50
2019-05-25T05:16:46.671Z,13.50
2019-05-25T05:20:55.277Z,13.70
2019-05-25T05:25:05.094Z,13.80
2019-05-25T05:29:13.718Z,13.80
2019-05-25T05:33:22.608Z,13.80
2019-05-25T05:37:32.370Z,13.90
2019-05-25T05:41:41.062Z,14.00
2019-05-25T05:45:51.155Z,14.10
2019-05-25T05:50:02.285Z,14.10
2019-05-25T05:54:10.888Z,14.10
2019-05-25T05:58:19.756Z,14.20
2019-05-25T06:02:28.383Z,14.40
2019-05-25T06:06:36.976Z,14.60
2019-05-25T06:10:45.886Z,14.70
2019-05-25T06:14:54.447Z,14.80
2019-05-25T06:19:03.237Z,15.00
2019-05-25T06:23:14.555Z,14.90
2019-05-25T06:27:27.326Z,14.90
2019-05-25T06:31:36.156Z,15.00
2019-05-25T06:35:44.747Z,15.00
2019-05-25T06:39:53.345Z,14.90
2019-05-25T06:44:02.194Z,15.00
2019-05-25T06:48:10.813Z,15.10
2019-05-25T06:52:19.392Z,15.20
2019-05-25T06:56:28.011Z,15.30
2019-05-25T07:00:36.601Z,15.40
2019-05-25T07:04:45.225Z,15.50
2019-05-25T07:08:53.907Z,15.70
2019-05-25T07:13:03.147Z,15.60
2019-05-25T07:17:11.763Z,15.60
2019-05-25T07:21:20.384Z,15.50
2019-05-25T07:25:29.027Z,15.40
2019-05-25T07:29:37.634Z,15.40
2019-05-25T07:33:46.283Z,15.50
2019-05-25T07:37:54.867Z,15.50
2019-05-25T07:42:03.622Z,15.60
2019-05-25T07:46:12.573Z,15.50
2019-05-25T07:50:21.728Z,15.50
2019-05-25T07:54:30.332Z,15.40
2019-05-25T07:58:38.946Z,15.50
2019-05-25T08:02:47.537Z,15.50
2019-05-25T08:06:56.199Z,15.70
2019-05-25T08:11:04.791Z,15.90
2019-05-25T08:15:14.500Z,16.00
2019-05-25T08:19:23.131Z,16.20
2019-05-25T08:23:31.767Z,16.30
2019-05-25T08:27:40.373Z,16.20
2019-05-25T08:31:48.998Z,16.20
2019-05-25T08:35:57.618Z,16.40
2019-05-25T08:40:07.626Z,16.50
2019-05-25T08:44:16.166Z,16.70
2019-05-25T08:48:24.801Z,17.00
2019-05-25T08:52:33.405Z,16.90
2019-05-25T08:56:42.018Z,16.80
2019-05-25T09:00:50.662Z,17.00
2019-05-25T09:04:59.709Z,17.00
2019-05-25T09:09:08.781Z,17.10
2019-05-25T09:13:17.377Z,17.10
2019-05-25T09:17:25.983Z,17.00
2019-05-25T09:21:34.593Z,17.20
2019-05-25T09:25:43.210Z,17.50
2019-05-25T09:29:51.823Z,18.10
2019-05-25T09:34:00.814Z,18.20
2019-05-25T09:38:28.779Z,18.10
2019-05-25T09:42:37.394Z,18.30
2019-05-25T09:46:46.053Z,18.60
2019-05-25T09:50:54.629Z,18.80
2019-05-25T09:55:05.219Z,18.70
2019-05-25T09:59:20.053Z,18.50
2019-05-25T10:03:24.104Z,18.60
2019-05-25T10:07:32.727Z,18.80
2019-05-25T10:12:00.700Z,19.00
2019-05-25T10:16:09.324Z,19.00
2019-05-25T10:20:18.336Z,18.80
2019-05-25T10:24:27.199Z,18.80
2019-05-25T10:28:36.116Z,18.70
2019-05-25T10:32:44.724Z,18.70
2019-05-25T10:36:53.307Z,18.70
2019-05-25T10:41:01.927Z,18.50
2019-05-25T10:45:10.769Z,18.40
2019-05-25T10:49:19.325Z,18.60
2019-05-25T10:53:27.949Z,18.90
2019-05-25T10:57:36.658Z,19.40
2019-05-25T11:01:45.596Z,19.40
2019-05-25T11:05:54.169Z,19.10
2019-05-25T11:10:02.882Z,19.20
2019-05-25T11:14:30.864Z,19.70
2019-05-25T11:18:39.606Z,20.10
2019-05-25T11:22:48.221Z,20.20
2019-05-25T11:26:59.555Z,20.00
2019-05-25T11:31:07.028Z,19.90
2019-05-25T11:35:17.235Z,19.80
2019-05-25T11:39:25.812Z,19.70
2019-05-25T11:43:34.427Z,19.50
2019-05-25T11:47:43.052Z,19.40
2019-05-25T11:51:51.667Z,19.40
2019-05-25T11:56:00.282Z,19.80
2019-05-25T12:00:24.519Z,20.10
2019-05-25T12:04:23.871Z,20.10
2019-05-25T12:08:32.467Z,20.20
2019-05-25T12:12:41.077Z,20.50
2019-05-25T12:16:49.701Z,20.80
2019-05-25T12:21:01.285Z,21.00
2019-05-25T12:25:10.117Z,21.20
2019-05-25T12:29:19.055Z,21.10
2019-05-25T12:33:27.644Z,20.90
2019-05-25T12:37:36.260Z,20.50
2019-05-25T12:41:44.923Z,20.10
2019-05-25T12:45:53.501Z,19.90
2019-05-25T12:50:02.152Z,20.40
2019-05-25T12:54:10.751Z,20.80
2019-05-25T12:58:19.369Z,20.80
2019-05-25T13:02:27.986Z,21.10
2019-05-25T13:06:36.574Z,21.40
2019-05-25T13:10:45.273Z,21.60
2019-05-25T13:14:53.859Z,21.40
2019-05-25T13:19:02.453Z,21.40
2019-05-25T13:23:11.082Z,21.00
2019-05-25T13:27:19.708Z,20.80
2019-05-25T13:31:28.304Z,20.60
2019-05-25T13:35:36.938Z,20.30
2019-05-25T13:39:45.875Z,20.30
2019-05-25T13:43:54.496Z,20.20
2019-05-25T13:48:03.434Z,20.10
2019-05-25T13:52:12.018Z,20.10
2019-05-25T13:56:20.637Z,20.10
2019-05-25T14:00:29.258Z,20.00
2019-05-25T14:04:37.835Z,20.10
2019-05-25T14:08:46.457Z,20.10
2019-05-25T14:12:55.020Z,20.10
2019-05-25T14:17:03.625Z,20.70
2019-05-25T14:21:12.242Z,21.40
2019-05-25T14:25:20.871Z,21.70
2019-05-25T14:29:29.801Z,22.10
2019-05-25T14:33:38.389Z,22.20
2019-05-25T14:37:47.008Z,21.90
2019-05-25T14:41:55.630Z,21.80
2019-05-25T14:46:04.528Z,21.90
2019-05-25T14:50:13.754Z,21.80
2019-05-25T14:54:22.634Z,21.90
2019-05-25T14:58:31.212Z,22.20
2019-05-25T15:02:40.257Z,21.90
2019-05-25T15:06:49.209Z,21.50
2019-05-25T15:10:57.817Z,21.10
2019-05-25T15:15:08.644Z,21.10
2019-05-25T15:19:17.257Z,21.00
2019-05-25T15:23:25.837Z,20.70
2019-05-25T15:27:34.815Z,20.40
2019-05-25T15:31:43.655Z,20.30
2019-05-25T15:35:52.272Z,20.40
2019-05-25T15:40:00.882Z,20.40
2019-05-25T15:44:09.471Z,20.40
2019-05-25T15:48:18.164Z,20.60
2019-05-25T15:52:26.745Z,20.80
2019-05-25T15:56:35.335Z,20.80
2019-05-25T16:00:49.389Z,21.00
2019-05-25T16:04:58.006Z,21.20
2019-05-25T16:09:07.750Z,21.30
2019-05-25T16:13:17.006Z,21.30
2019-05-25T16:17:26.342Z,21.30
2019-05-25T16:21:34.948Z,21.30
2019-05-25T16:25:43.546Z,21.40
2019-05-25T16:29:52.068Z,21.40
2019-05-25T16:34:00.673Z,21.40
2019-05-25T16:38:09.890Z,21.20
2019-05-25T16:42:18.595Z,21.00
2019-05-25T16:46:27.194Z,21.20
2019-05-25T16:50:35.774Z,21.30
2019-05-25T16:55:04.688Z,21.10
2019-05-25T16:59:13.625Z,21.10
2019-05-25T17:03:28.104Z,21.20
2019-05-25T17:07:32.541Z,21.20
2019-05-25T17:11:41.047Z,21.10
2019-05-25T17:15:49.669Z,20.80
2019-05-25T17:19:58.243Z,20.60
2019-05-25T17:24:06.940Z,20.50
2019-05-25T17:28:16.029Z,20.60
2019-05-25T17:32:24.633Z,20.50
2019-05-25T17:36:33.254Z,20.30
2019-05-25T17:40:41.906Z,20.30
2019-05-25T17:44:50.449Z,20.10
2019-05-25T17:48:59.081Z,20.20
2019-05-25T17:53:07.707Z,20.20
2019-05-25T17:57:16.281Z,20.20
2019-05-25T18:01:24.860Z,20.10
2019-05-25T18:05:33.437Z,20.10
2019-05-25T18:09:42.051Z,19.90
2019-05-25T18:13:50.656Z,19.80
2019-05-25T18:17:59.244Z,19.60
2019-05-25T18:22:07.855Z,19.60
2019-05-25T18:26:35.781Z,19.50
2019-05-25T18:30:44.390Z,19.40
2019-05-25T18:34:52.994Z,19.40
2019-05-25T18:39:01.574Z,19.30
2019-05-25T18:43:10.178Z,19.30
2019-05-25T18:47:18.766Z,19.20
2019-05-25T18:51:27.361Z,19.20
2019-05-25T18:55:35.963Z,19.00
2019-05-25T18:59:44.580Z,18.90
2019-05-25T19:03:53.165Z,18.80
2019-05-25T19:08:01.780Z,18.80
2019-05-25T19:12:10.374Z,18.70
2019-05-25T19:16:18.990Z,18.60
2019-05-25T19:20:27.643Z,18.60
2019-05-25T19:24:36.253Z,18.50
2019-05-25T19:28:44.863Z,18.50
2019-05-25T19:32:53.442Z,18.40
2019-05-25T19:37:03.635Z,18.30
2019-05-25T19:41:12.315Z,18.20
2019-05-25T19:45:21.296Z,18.10
2019-05-25T19:49:29.886Z,17.90
2019-05-25T19:53:38.507Z,17.70
2019-05-25T19:57:47.080Z,17.60
2019-05-25T20:01:55.690Z,17.50
2019-05-25T20:06:04.276Z,17.50
2019-05-25T20:10:13.156Z,17.40
2019-05-25T20:14:21.710Z,17.30
2019-05-25T20:18:30.338Z,17.20
2019-05-25T20:22:38.938Z,17.10
2019-05-25T20:26:47.619Z,17.00
2019-05-25T20:30:56.230Z,17.00
2019-05-25T20:35:06.049Z,16.90
2019-05-25T20:39:14.745Z,16.80
2019-05-25T20:43:23.300Z,16.70
2019-05-25T20:47:31.912Z,16.70
2019-05-25T20:51:40.484Z,16.60
2019-05-25T20:55:49.076Z,16.50
2019-05-25T20:59:57.678Z,16.40
2019-05-25T21:04:06.421Z,16.30
2019-05-25T21:08:15.049Z,16.30
2019-05-25T21:12:24.100Z,16.20
2019-05-25T21:16:32.718Z,16.20
2019-05-25T21:20:41.478Z,16.20
2019-05-25T21:24:50.106Z,16.10
2019-05-25T21:28:59.126Z,16.10
2019-05-25T21:33:08.167Z,16.00
2019-05-25T21:37:16.880Z,15.90
2019-05-25T21:41:25.496Z,15.80
2019-05-25T21:45:34.078Z,15.70
2019-05-25T21:49:42.957Z,15.60
2019-05-25T21:53:54.541Z,15.60
2019-05-25T21:58:03.179Z,15.50
2019-05-25T22:02:11.975Z,15.50
2019-05-25T22:06:24.258Z,15.50
2019-05-25T22:10:31.260Z,15.30
2019-05-25T22:14:39.873Z,15.20
2019-05-25T22:18:48.486Z,15.10
2019-05-25T22:22:57.083Z,15.00
2019-05-25T22:27:25.065Z,15.00
2019-05-25T22:31:33.666Z,14.90
2019-05-25T22:35:42.259Z,14.90
2019-05-25T22:39:50.935Z,14.90
2019-05-25T22:43:59.978Z,14.90
2019-05-25T22:48:08.575Z,14.80
2019-05-25T22:52:17.209Z,14.80
2019-05-25T22:56:25.790Z,14.80
2019-05-25T23:00:34.484Z,14.70
2019-05-25T23:04:43.619Z,14.70
2019-05-25T23:08:52.252Z,14.60
2019-05-25T23:13:00.849Z,14.60
2019-05-25T23:17:09.906Z,14.50
2019-05-25T23:21:18.796Z,14.40
2019-05-25T23:25:27.500Z,14.30
2019-05-25T23:29:36.457Z,14.20
2019-05-25T23:33:45.080Z,14.20
2019-05-25T23:37:53.690Z,14.10
2019-05-25T23:42:02.340Z,14.10
2019-05-25T23:46:10.989Z,14.10
2019-05-25T23:50:19.762Z,14.10
2019-05-25T23:54:28.410Z,14.10
2019-05-25T23:58:37.030Z,14.00
